Main page
METAR-TAF:

METAR-TAF

Airports :

Erfurt–Weimar Airport

Erfurt, Germany

latitude: 50-59N, longitude: 010-58E, elevation: 315 m

Current weather observation

The report was made 24 minutes ago, at 13:50 UTC
Wind 12 kt from the North/Northeast
Temperature 17°C
Humidity 36%
Pressure 1029 hPa
Visibility 10 km or more
no clouds below 1500 m and no cumulonimbus

METAR: EDDE 281350Z 02012KT CAVOK 17/02 Q1029 NOSIG

Time: 16:14 (14:14 UTC)

Forecast

The report was made 2 hours and 40 minutes ago, at 11:34 UTC
Forecast valid from 28 at 12 UTC to 29 at 12 UTC
Wind 10 kt from the North
Visibility 10 km or more
no clouds below 1500 m and no cumulonimbus
Becoming
from 28 at 16 UTC to 28 at 18 UTC
Wind 5 kt from the North
Becoming
from 29 at 09 UTC to 29 at 12 UTC
Wind 7 kt from the East/Northeast

TAF: EDDE 281134Z 2812/2912 36010KT CAVOK BECMG 2816/2818 35005KT BECMG 2909/2912 06007KT

Weather observations and forecasts of more than 4000 airports (METAR and TAF reports).

The available stations are represented by yellow and red dots on the map.

Hover mouse over dot to see the name of the station.

Then click to see weather observations and forecasts.

To change the map : click on the green buttons with a black cross to zoom in, on the green button with a dash to zoom out, or on the green arrows for adjacent maps.


METAR-TAF: